createdAt,value
2019-03-28T00:01:12.102Z,95.51
2019-03-28T00:03:39.555Z,95.95
2019-03-28T00:06:07.086Z,95.81
2019-03-28T00:08:34.537Z,96.98
2019-03-28T00:11:02.020Z,96.91
2019-03-28T00:13:30.119Z,97.18
2019-03-28T00:15:58.263Z,96.15
2019-03-28T00:18:25.741Z,96.33
2019-03-28T00:20:53.214Z,96.99
2019-03-28T00:23:38.983Z,96.92
2019-03-28T00:26:06.469Z,97.21
2019-03-28T00:28:33.942Z,97.51
2019-03-28T00:31:01.407Z,96.94
2019-03-28T00:33:28.853Z,96.76
2019-03-28T00:35:56.351Z,97.09
2019-03-28T00:38:23.794Z,96.77
2019-03-28T00:40:51.275Z,97.23
2019-03-28T00:43:18.741Z,98.20
2019-03-28T00:45:46.239Z,97.99
2019-03-28T00:48:13.679Z,98.42
2019-03-28T00:50:41.187Z,98.18
2019-03-28T00:53:08.661Z,98.28
2019-03-28T00:55:36.192Z,97.77
2019-03-28T00:58:03.634Z,98.60
2019-03-28T01:00:31.112Z,98.57
2019-03-28T01:02:58.559Z,97.68
2019-03-28T01:05:26.056Z,97.63
2019-03-28T01:07:53.508Z,97.33
2019-03-28T01:10:21.004Z,98.34
2019-03-28T01:12:48.461Z,98.43
2019-03-28T01:15:15.992Z,98.18
2019-03-28T01:17:43.445Z,99.08
2019-03-28T01:20:11.057Z,98.60
2019-03-28T01:22:38.517Z,98.70
2019-03-28T01:25:06.085Z,99.23
2019-03-28T01:27:33.569Z,98.95
2019-03-28T01:30:01.040Z,99.58
2019-03-28T01:32:28.599Z,99.15
2019-03-28T01:34:56.159Z,98.78
2019-03-28T01:37:23.665Z,98.89
2019-03-28T01:39:51.120Z,99.21
2019-03-28T01:42:18.610Z,98.18
2019-03-28T01:44:46.092Z,99.11
2019-03-28T01:47:13.562Z,99.44
2019-03-28T01:49:41.061Z,99.94
2019-03-28T01:52:08.584Z,99.69
2019-03-28T01:54:36.056Z,99.39
2019-03-28T01:57:10.995Z,99.54
2019-03-28T01:59:32.977Z,98.95
2019-03-28T02:02:02.969Z,99.51
2019-03-28T02:04:30.420Z,98.56
2019-03-28T02:06:57.901Z,99.02
2019-03-28T02:09:25.363Z,98.52
2019-03-28T02:11:52.870Z,99.12
2019-03-28T02:14:20.343Z,98.61
2019-03-28T02:16:47.817Z,99.15
2019-03-28T02:19:15.266Z,100.00
2019-03-28T02:21:42.777Z,99.54
2019-03-28T02:24:10.233Z,99.76
2019-03-28T02:26:37.711Z,99.66
2019-03-28T02:29:05.167Z,99.16
2019-03-28T02:31:32.664Z,99.54
2019-03-28T02:34:00.139Z,99.84
2019-03-28T02:36:27.642Z,99.27
2019-03-28T02:38:55.133Z,99.97
2019-03-28T02:41:22.625Z,99.92
2019-03-28T02:43:50.091Z,100.00
2019-03-28T02:46:17.600Z,99.74
2019-03-28T02:48:45.069Z,99.14
2019-03-28T02:51:12.558Z,99.93
2019-03-28T02:53:40.008Z,100.00
2019-03-28T02:56:07.541Z,99.91
2019-03-28T02:58:35.011Z,99.66
2019-03-28T03:01:02.585Z,99.63
2019-03-28T03:03:30.011Z,99.55
2019-03-28T03:05:57.511Z,99.74
2019-03-28T03:08:24.963Z,99.99
2019-03-28T03:10:52.437Z,99.73
2019-03-28T03:13:20.147Z,99.48
2019-03-28T03:15:47.683Z,99.67
2019-03-28T03:18:15.145Z,99.16
2019-03-28T03:20:43.585Z,100.00
2019-03-28T03:23:11.411Z,100.00
2019-03-28T03:25:38.888Z,100.00
2019-03-28T03:28:06.349Z,99.71
2019-03-28T03:30:33.802Z,99.86
2019-03-28T03:33:01.297Z,100.00
2019-03-28T03:35:28.894Z,100.00
2019-03-28T03:37:56.447Z,100.00
2019-03-28T03:40:23.909Z,100.00
2019-03-28T03:42:51.422Z,100.00
2019-03-28T03:45:18.881Z,100.00
2019-03-28T03:47:46.384Z,100.00
2019-03-28T03:50:27.052Z,100.00
2019-03-28T03:52:54.535Z,100.00
2019-03-28T03:55:22.034Z,100.00
2019-03-28T03:57:49.523Z,100.00
2019-03-28T04:00:21.167Z,100.00
2019-03-28T04:02:48.760Z,100.00
2019-03-28T04:05:16.608Z,100.00
2019-03-28T04:07:44.091Z,100.00
2019-03-28T04:10:11.562Z,100.00
2019-03-28T04:12:39.085Z,100.00
2019-03-28T04:15:06.573Z,100.00
2019-03-28T04:17:34.070Z,100.00
2019-03-28T04:20:01.523Z,100.00
2019-03-28T04:22:29.032Z,100.00
2019-03-28T04:24:56.490Z,100.00
2019-03-28T04:27:23.978Z,100.00
2019-03-28T04:29:51.426Z,100.00
2019-03-28T04:32:18.892Z,100.00
2019-03-28T04:34:46.384Z,100.00
2019-03-28T04:37:13.884Z,100.00
2019-03-28T04:39:42.423Z,100.00
2019-03-28T04:42:09.919Z,100.00
2019-03-28T04:44:37.403Z,100.00
2019-03-28T04:47:04.873Z,100.00
2019-03-28T04:49:32.349Z,100.00
2019-03-28T04:51:59.803Z,100.00
2019-03-28T04:54:27.354Z,100.00
2019-03-28T04:56:54.819Z,100.00
2019-03-28T04:59:22.310Z,100.00
2019-03-28T05:02:02.459Z,100.00
2019-03-28T05:04:21.086Z,100.00
2019-03-28T05:06:48.643Z,100.00
2019-03-28T05:09:16.171Z,100.00
2019-03-28T05:11:43.643Z,100.00
2019-03-28T05:14:11.395Z,100.00
2019-03-28T05:16:39.003Z,100.00
2019-03-28T05:19:06.591Z,100.00
2019-03-28T05:21:34.051Z,100.00
2019-03-28T05:24:01.664Z,100.00
2019-03-28T05:26:29.131Z,100.00
2019-03-28T05:28:58.073Z,100.00
2019-03-28T05:31:25.987Z,100.00
2019-03-28T05:33:53.502Z,100.00
2019-03-28T05:36:20.947Z,100.00
2019-03-28T05:38:48.508Z,100.00
2019-03-28T05:41:17.418Z,100.00
2019-03-28T05:43:45.542Z,100.00
2019-03-28T05:46:13.340Z,100.00
2019-03-28T05:48:40.906Z,100.00
2019-03-28T05:51:08.379Z,100.00
2019-03-28T05:53:35.935Z,100.00
2019-03-28T05:56:03.762Z,100.00
2019-03-28T05:58:31.246Z,100.00
2019-03-28T06:00:58.733Z,100.00
2019-03-28T06:03:26.298Z,100.00
2019-03-28T06:05:53.992Z,100.00
2019-03-28T06:08:21.452Z,100.00
2019-03-28T06:10:48.975Z,100.00
2019-03-28T06:13:16.483Z,100.00
2019-03-28T06:15:44.015Z,100.00
2019-03-28T06:18:11.487Z,100.00
2019-03-28T06:20:38.977Z,100.00
2019-03-28T06:23:06.453Z,100.00
2019-03-28T06:25:34.251Z,100.00
2019-03-28T06:28:01.695Z,100.00
2019-03-28T06:30:29.177Z,100.00
2019-03-28T06:32:58.857Z,100.00
2019-03-28T06:35:26.079Z,100.00
2019-03-28T06:37:53.552Z,100.00
2019-03-28T06:40:21.060Z,100.00
2019-03-28T06:42:48.513Z,100.00
2019-03-28T06:45:16.000Z,100.00
2019-03-28T06:47:43.461Z,100.00
2019-03-28T06:50:11.304Z,100.00
2019-03-28T06:52:38.786Z,100.00
2019-03-28T06:55:06.539Z,100.00
2019-03-28T06:57:33.987Z,100.00
2019-03-28T07:00:03.307Z,100.00
2019-03-28T07:02:30.777Z,100.00
2019-03-28T07:04:58.283Z,100.00
2019-03-28T07:07:25.728Z,100.00
2019-03-28T07:09:53.211Z,100.00
2019-03-28T07:12:20.705Z,100.00
2019-03-28T07:14:48.238Z,100.00
2019-03-28T07:17:15.690Z,100.00
2019-03-28T07:19:43.175Z,100.00
2019-03-28T07:22:10.672Z,100.00
2019-03-28T07:24:38.209Z,100.00
2019-03-28T07:27:05.671Z,100.00
2019-03-28T07:29:33.178Z,100.00
2019-03-28T07:32:00.623Z,100.00
2019-03-28T07:34:28.098Z,100.00
2019-03-28T07:36:55.559Z,100.00
2019-03-28T07:39:23.009Z,100.00
2019-03-28T07:41:50.516Z,99.76
2019-03-28T07:44:17.988Z,99.39
2019-03-28T07:46:47.576Z,99.58
2019-03-28T07:49:14.821Z,99.81
2019-03-28T07:51:42.328Z,99.45
2019-03-28T07:54:09.822Z,98.97
2019-03-28T07:56:37.336Z,97.98
2019-03-28T07:59:04.816Z,97.75
2019-03-28T08:01:32.332Z,97.65
2019-03-28T08:03:59.887Z,97.59
2019-03-28T08:06:27.380Z,97.24
2019-03-28T08:08:54.838Z,96.66
2019-03-28T08:11:22.387Z,96.29
2019-03-28T08:13:49.953Z,95.59
2019-03-28T08:16:17.468Z,94.02
2019-03-28T08:18:45.465Z,95.43
2019-03-28T08:21:13.150Z,94.16
2019-03-28T08:23:40.640Z,93.90
2019-03-28T08:26:08.162Z,94.13
2019-03-28T08:28:35.621Z,93.51
2019-03-28T08:31:03.111Z,94.13
2019-03-28T08:33:57.634Z,93.21
2019-03-28T08:36:27.136Z,94.14
2019-03-28T08:38:55.708Z,93.42
2019-03-28T08:41:23.445Z,91.02
2019-03-28T08:43:51.262Z,90.37
2019-03-28T08:46:18.730Z,91.38
2019-03-28T08:48:46.182Z,92.59
2019-03-28T08:51:13.679Z,90.50
2019-03-28T08:53:41.470Z,91.19
2019-03-28T08:56:09.045Z,89.47
2019-03-28T08:58:38.107Z,89.93
2019-03-28T09:01:07.210Z,90.35
2019-03-28T09:03:34.642Z,89.64
2019-03-28T09:06:02.141Z,88.35
2019-03-28T09:08:29.684Z,88.55
2019-03-28T09:10:57.248Z,89.27
2019-03-28T09:13:24.710Z,89.42
2019-03-28T09:15:52.243Z,89.06
2019-03-28T09:18:19.707Z,86.42
2019-03-28T09:20:47.218Z,86.29
2019-03-28T09:23:14.908Z,87.79
2019-03-28T09:25:42.410Z,86.93
2019-03-28T09:28:09.956Z,86.40
2019-03-28T09:30:47.891Z,87.56
2019-03-28T09:33:08.609Z,85.47
2019-03-28T09:35:36.173Z,84.66
2019-03-28T09:38:04.250Z,84.89
2019-03-28T09:40:31.761Z,83.47
2019-03-28T09:42:59.423Z,84.47
2019-03-28T09:45:26.888Z,85.56
2019-03-28T09:47:54.411Z,85.74
2019-03-28T09:50:21.971Z,84.21
2019-03-28T09:52:49.465Z,82.81
2019-03-28T09:55:18.836Z,83.99
2019-03-28T09:57:47.569Z,81.06
2019-03-28T10:00:16.050Z,81.77
2019-03-28T10:02:45.947Z,82.05
2019-03-28T10:05:14.772Z,81.06
2019-03-28T10:07:43.410Z,79.91
2019-03-28T10:10:11.250Z,77.87
2019-03-28T10:12:38.740Z,78.03
2019-03-28T10:15:06.827Z,76.11
2019-03-28T10:17:34.314Z,79.59
2019-03-28T10:20:01.770Z,79.65
2019-03-28T10:22:29.241Z,78.04
2019-03-28T10:24:56.700Z,77.29
2019-03-28T10:27:24.212Z,78.32
2019-03-28T10:29:51.741Z,77.81
2019-03-28T10:32:19.334Z,78.34
2019-03-28T10:34:46.825Z,78.24
2019-03-28T10:37:14.372Z,77.20
2019-03-28T10:39:41.843Z,77.54
2019-03-28T10:42:09.363Z,77.36
2019-03-28T10:44:36.882Z,76.93
2019-03-28T10:47:05.071Z,78.35
2019-03-28T10:49:32.849Z,76.50
2019-03-28T10:52:02.588Z,76.10
2019-03-28T10:54:29.851Z,75.85
2019-03-28T10:56:58.109Z,74.50
2019-03-28T10:59:25.787Z,75.55
2019-03-28T11:01:53.284Z,74.28
2019-03-28T11:04:20.814Z,72.26
2019-03-28T11:06:48.301Z,72.78
2019-03-28T11:09:15.838Z,71.74
2019-03-28T11:11:43.314Z,71.14
2019-03-28T11:14:10.817Z,70.71
2019-03-28T11:16:38.302Z,73.50
2019-03-28T11:19:05.878Z,76.07
2019-03-28T11:21:35.180Z,73.87
2019-03-28T11:24:02.732Z,70.46
2019-03-28T11:26:31.358Z,72.22
2019-03-28T11:29:01.055Z,71.57
2019-03-28T11:31:28.760Z,72.43
2019-03-28T11:33:56.276Z,71.28
2019-03-28T11:36:23.764Z,71.04
2019-03-28T11:38:51.333Z,71.71
2019-03-28T11:41:18.881Z,70.16
2019-03-28T11:43:46.389Z,67.67
2019-03-28T11:46:13.851Z,67.39
2019-03-28T11:48:41.475Z,68.07
2019-03-28T11:51:08.931Z,70.37
2019-03-28T11:53:36.417Z,68.89
2019-03-28T11:56:03.911Z,70.32
2019-03-28T11:58:31.399Z,71.22
2019-03-28T12:00:59.094Z,69.25
2019-03-28T12:03:26.576Z,66.85
2019-03-28T12:05:54.046Z,62.08
2019-03-28T12:08:21.586Z,63.70
2019-03-28T12:10:52.001Z,64.58
2019-03-28T12:13:19.488Z,64.79
2019-03-28T12:15:46.948Z,66.08
2019-03-28T12:18:14.448Z,66.88
2019-03-28T12:20:41.923Z,66.36
2019-03-28T12:23:09.471Z,65.63
2019-03-28T12:25:36.931Z,67.14
2019-03-28T12:28:04.698Z,66.58
2019-03-28T12:30:32.177Z,64.56
2019-03-28T12:32:59.693Z,64.92
2019-03-28T12:35:27.206Z,65.50
2019-03-28T12:37:54.742Z,65.14
2019-03-28T12:40:22.239Z,64.55
2019-03-28T12:42:49.723Z,65.81
2019-03-28T12:45:17.302Z,66.98
2019-03-28T12:47:45.292Z,65.06
2019-03-28T12:50:13.712Z,66.75
2019-03-28T12:52:41.292Z,66.24
2019-03-28T12:55:09.170Z,64.16
2019-03-28T12:57:37.581Z,65.46
2019-03-28T13:00:07.135Z,65.56
2019-03-28T13:02:34.646Z,64.48
2019-03-28T13:05:02.865Z,65.30
2019-03-28T13:07:30.551Z,67.97
2019-03-28T13:09:58.089Z,67.32
2019-03-28T13:12:25.580Z,66.00
2019-03-28T13:14:53.125Z,67.39
2019-03-28T13:17:20.647Z,65.96
2019-03-28T13:19:48.215Z,66.73
2019-03-28T13:22:15.716Z,67.70
2019-03-28T13:24:43.251Z,66.94
2019-03-28T13:27:10.720Z,67.30
2019-03-28T13:29:38.272Z,66.12
2019-03-28T13:32:05.727Z,66.58
2019-03-28T13:34:33.237Z,66.98
2019-03-28T13:37:00.820Z,66.57
2019-03-28T13:39:28.328Z,66.31
2019-03-28T13:41:55.922Z,66.75
2019-03-28T13:44:23.409Z,67.53
2019-03-28T13:46:50.902Z,67.60
2019-03-28T13:49:18.431Z,67.49
2019-03-28T13:51:45.974Z,67.78
2019-03-28T13:54:13.473Z,66.34
2019-03-28T13:56:40.968Z,67.36
2019-03-28T13:59:08.453Z,67.09
2019-03-28T14:01:35.927Z,67.24
2019-03-28T14:04:03.469Z,67.03
2019-03-28T14:06:31.108Z,67.23
2019-03-28T14:08:58.606Z,67.64
2019-03-28T14:11:26.081Z,67.62
2019-03-28T14:13:53.532Z,68.72
2019-03-28T14:16:21.040Z,67.94
2019-03-28T14:18:48.543Z,67.48
2019-03-28T14:21:16.075Z,69.10
2019-03-28T14:23:44.576Z,68.14
2019-03-28T14:26:12.175Z,67.14
2019-03-28T14:28:39.729Z,68.11
2019-03-28T14:31:07.600Z,67.69
2019-03-28T14:33:35.340Z,67.33
2019-03-28T14:36:02.859Z,67.76
2019-03-28T14:38:30.418Z,67.10
2019-03-28T14:40:58.450Z,66.07
2019-03-28T14:43:26.056Z,66.09
2019-03-28T14:45:53.609Z,66.01
2019-03-28T14:48:21.117Z,67.45
2019-03-28T14:50:48.733Z,66.09
2019-03-28T14:53:16.225Z,66.04
2019-03-28T14:55:43.751Z,65.69
2019-03-28T14:58:11.275Z,65.95
2019-03-28T15:00:46.815Z,67.78
2019-03-28T15:03:24.907Z,67.11
2019-03-28T15:05:43.717Z,67.91
2019-03-28T15:08:11.381Z,67.50
2019-03-28T15:10:38.904Z,67.08
2019-03-28T15:13:06.388Z,68.26
2019-03-28T15:15:33.892Z,69.92
2019-03-28T15:18:04.209Z,69.49
2019-03-28T15:20:31.732Z,69.13
2019-03-28T15:22:59.188Z,68.39
2019-03-28T15:25:26.769Z,67.98
2019-03-28T15:27:54.255Z,67.66
2019-03-28T15:30:21.883Z,67.58
2019-03-28T15:32:49.371Z,67.48
2019-03-28T15:35:16.908Z,68.25
2019-03-28T15:37:44.406Z,68.18
2019-03-28T15:40:12.574Z,68.63
2019-03-28T15:42:40.063Z,68.41
2019-03-28T15:45:07.986Z,67.00
2019-03-28T15:47:35.484Z,67.36
2019-03-28T15:50:03.710Z,66.56
2019-03-28T15:52:31.738Z,68.42
2019-03-28T15:54:59.363Z,68.19
2019-03-28T15:57:26.933Z,68.30
2019-03-28T15:59:54.421Z,66.93
2019-03-28T16:02:21.985Z,67.38
2019-03-28T16:04:49.465Z,66.47
2019-03-28T16:07:16.983Z,67.40
2019-03-28T16:09:44.490Z,67.22
2019-03-28T16:12:12.170Z,66.29
2019-03-28T16:14:41.423Z,66.20
2019-03-28T16:17:09.024Z,66.50
2019-03-28T16:19:36.588Z,65.74
2019-03-28T16:22:04.496Z,65.32
2019-03-28T16:24:32.107Z,66.15
2019-03-28T16:26:59.640Z,66.98
2019-03-28T16:29:27.107Z,66.35
2019-03-28T16:31:54.690Z,68.77
2019-03-28T16:34:22.167Z,68.97
2019-03-28T16:36:49.690Z,67.40
2019-03-28T16:39:17.174Z,67.64
2019-03-28T16:41:44.664Z,66.16
2019-03-28T16:44:12.138Z,65.91
2019-03-28T16:46:39.649Z,66.51
2019-03-28T16:49:08.185Z,67.95
2019-03-28T16:51:36.100Z,68.07
2019-03-28T16:54:03.798Z,67.66
2019-03-28T16:56:31.329Z,67.08
2019-03-28T16:58:59.110Z,67.33
2019-03-28T17:01:26.613Z,67.31
2019-03-28T17:03:54.074Z,69.38
2019-03-28T17:06:21.966Z,65.74
2019-03-28T17:08:51.254Z,66.58
2019-03-28T17:11:25.866Z,66.44
2019-03-28T17:13:53.401Z,66.15
2019-03-28T17:16:20.921Z,66.73
2019-03-28T17:18:48.697Z,67.97
2019-03-28T17:21:16.189Z,67.85
2019-03-28T17:23:43.663Z,66.24
2019-03-28T17:26:11.177Z,65.81
2019-03-28T17:28:38.698Z,66.19
2019-03-28T17:31:06.195Z,67.41
2019-03-28T17:33:33.681Z,68.48
2019-03-28T17:36:01.903Z,68.48
2019-03-28T17:38:29.380Z,67.63
2019-03-28T17:40:56.873Z,66.30
2019-03-28T17:43:24.365Z,68.16
2019-03-28T17:45:52.162Z,68.05
2019-03-28T17:48:19.836Z,70.11
2019-03-28T17:50:47.297Z,69.22
2019-03-28T17:53:14.847Z,73.27
2019-03-28T17:55:50.388Z,69.17
2019-03-28T17:58:17.978Z,70.12
2019-03-28T18:00:47.369Z,67.17
2019-03-28T18:03:14.912Z,67.58
2019-03-28T18:05:42.583Z,68.57
2019-03-28T18:08:10.268Z,69.81
2019-03-28T18:10:38.866Z,70.60
2019-03-28T18:13:06.992Z,72.88
2019-03-28T18:15:34.466Z,72.54
2019-03-28T18:18:01.965Z,74.07
2019-03-28T18:20:29.451Z,73.12
2019-03-28T18:22:57.459Z,73.14
2019-03-28T18:25:25.152Z,72.35
2019-03-28T18:27:52.932Z,73.48
2019-03-28T18:30:20.757Z,73.08
2019-03-28T18:32:50.059Z,72.14
2019-03-28T18:35:17.682Z,72.29
2019-03-28T18:37:45.200Z,70.89
2019-03-28T18:40:12.914Z,70.72
2019-03-28T18:42:40.466Z,70.28
2019-03-28T18:45:08.204Z,70.90
2019-03-28T18:47:35.772Z,72.05
2019-03-28T18:50:04.373Z,72.78
2019-03-28T18:52:31.847Z,73.10
2019-03-28T18:54:59.299Z,72.00
2019-03-28T18:57:26.858Z,72.55
2019-03-28T18:59:54.339Z,72.83
2019-03-28T19:02:21.818Z,73.81
2019-03-28T19:04:49.314Z,73.70
2019-03-28T19:07:16.795Z,73.79
2019-03-28T19:09:44.358Z,73.85
2019-03-28T19:12:11.810Z,74.93
2019-03-28T19:14:39.312Z,74.11
2019-03-28T19:17:09.055Z,74.62
2019-03-28T19:19:39.624Z,74.55
2019-03-28T19:22:05.948Z,75.82
2019-03-28T19:24:33.626Z,74.70
2019-03-28T19:27:01.095Z,76.46
2019-03-28T19:29:28.579Z,78.17
2019-03-28T19:31:56.676Z,79.05
2019-03-28T19:34:24.499Z,79.19
2019-03-28T19:36:52.294Z,78.46
2019-03-28T19:39:28.473Z,78.93
2019-03-28T19:41:56.159Z,78.45
2019-03-28T19:44:25.872Z,79.95
2019-03-28T19:46:53.061Z,81.00
2019-03-28T19:49:20.575Z,80.20
2019-03-28T19:51:48.218Z,79.99
2019-03-28T19:54:15.703Z,81.35
2019-03-28T19:56:43.253Z,82.76
2019-03-28T19:59:10.898Z,84.40
2019-03-28T20:01:38.601Z,82.89
2019-03-28T20:04:06.097Z,84.05
2019-03-28T20:06:33.678Z,82.72
2019-03-28T20:09:01.174Z,77.79
2019-03-28T20:11:28.658Z,76.93
2019-03-28T20:13:56.323Z,78.99
2019-03-28T20:16:23.868Z,78.99
2019-03-28T20:18:51.439Z,79.30
2019-03-28T20:21:18.933Z,80.40
2019-03-28T20:23:46.450Z,80.73
2019-03-28T20:26:14.097Z,80.78
2019-03-28T20:28:42.806Z,80.05
2019-03-28T20:31:10.757Z,80.89
2019-03-28T20:33:38.486Z,80.51
2019-03-28T20:36:30.004Z,80.81
2019-03-28T20:38:35.580Z,81.22
2019-03-28T20:41:03.185Z,81.35
2019-03-28T20:43:30.747Z,81.94
2019-03-28T20:45:58.311Z,83.36
2019-03-28T20:48:25.821Z,83.58
2019-03-28T20:50:53.430Z,83.52
2019-03-28T20:53:21.147Z,79.48
2019-03-28T20:55:48.759Z,74.37
2019-03-28T20:58:16.416Z,72.80
2019-03-28T21:00:46.099Z,73.82
2019-03-28T21:03:15.000Z,76.09
2019-03-28T21:05:43.913Z,77.05
2019-03-28T21:08:12.787Z,77.17
2019-03-28T21:10:40.346Z,77.68
2019-03-28T21:13:07.878Z,78.36
2019-03-28T21:15:35.534Z,77.97
2019-03-28T21:18:03.207Z,79.15
2019-03-28T21:20:30.850Z,77.72
2019-03-28T21:22:58.353Z,76.23
2019-03-28T21:25:29.297Z,76.17
2019-03-28T21:27:55.486Z,77.94
2019-03-28T21:30:23.163Z,77.08
2019-03-28T21:32:55.602Z,77.92
2019-03-28T21:35:20.109Z,78.48
2019-03-28T21:37:47.561Z,79.83
2019-03-28T21:40:15.081Z,80.23
2019-03-28T21:42:42.578Z,81.67
2019-03-28T21:45:10.191Z,80.19
2019-03-28T21:47:37.659Z,79.33
2019-03-28T21:50:07.316Z,80.46
2019-03-28T21:52:34.770Z,81.84
2019-03-28T21:55:03.130Z,82.51
2019-03-28T21:57:30.588Z,83.94
2019-03-28T21:59:58.074Z,83.75
2019-03-28T22:02:25.560Z,83.21
2019-03-28T22:04:53.046Z,83.19
2019-03-28T22:07:20.517Z,83.43
2019-03-28T22:09:48.027Z,83.69
2019-03-28T22:12:15.551Z,83.47
2019-03-28T22:14:43.055Z,83.99
2019-03-28T22:17:10.528Z,86.24
2019-03-28T22:19:38.038Z,85.88
2019-03-28T22:22:05.664Z,85.88
2019-03-28T22:24:33.160Z,86.38
2019-03-28T22:27:00.718Z,86.61
2019-03-28T22:29:28.208Z,85.98
2019-03-28T22:31:56.802Z,86.20
2019-03-28T22:34:24.385Z,85.63
2019-03-28T22:36:57.566Z,87.21
2019-03-28T22:39:21.265Z,86.46
2019-03-28T22:41:48.966Z,86.46
2019-03-28T22:44:17.331Z,88.97
2019-03-28T22:46:44.821Z,87.70
2019-03-28T22:49:12.310Z,89.38
2019-03-28T22:51:40.436Z,88.32
2019-03-28T22:54:07.924Z,88.91
2019-03-28T22:56:35.620Z,90.31
2019-03-28T22:59:03.089Z,91.39
2019-03-28T23:01:30.673Z,90.94
2019-03-28T23:03:58.306Z,91.01
2019-03-28T23:06:25.834Z,89.67
2019-03-28T23:08:53.308Z,89.73
2019-03-28T23:11:20.805Z,91.62
2019-03-28T23:13:48.713Z,91.03
2019-03-28T23:16:16.557Z,90.80
2019-03-28T23:18:44.149Z,91.63
2019-03-28T23:21:11.815Z,91.33
2019-03-28T23:23:39.323Z,91.17
2019-03-28T23:26:06.832Z,91.48
2019-03-28T23:28:34.317Z,90.90
2019-03-28T23:31:01.807Z,91.27
2019-03-28T23:33:29.349Z,91.16
2019-03-28T23:35:56.855Z,90.37
2019-03-28T23:38:24.330Z,91.10
2019-03-28T23:40:51.838Z,91.57
2019-03-28T23:43:19.313Z,92.24
2019-03-28T23:45:46.834Z,91.73
2019-03-28T23:48:14.288Z,91.24
2019-03-28T23:50:41.803Z,92.35
2019-03-28T23:53:09.262Z,92.77
2019-03-28T23:55:36.807Z,91.25
2019-03-28T23:58:04.309Z,93.42
